Portada
METAR-TAF:

METAR-TAF

Aeropuertos :

Aeropuerto de Albacete

Albacete, España

latitud: 38-57N, longitud: 001-51W, altitud: 702 m

Observación

El informe se hizo hace 38 minutos, a las 03:00 UTC
Viento calma
Temperatura 9°C
Humedad 93%
Presión 1012 hPa
Visibilidad 10 km o más
sin nubes por debajo de 1500 m y sin presencia de cumulonimbus.

METAR: LEAB 160300Z 00000KT CAVOK 09/08 Q1012 NOSIG

Hora: 05:38 (03:38 UTC)

Pronóstico

El informe se hizo hace 1 hora y 38 minutos, a las 02:00 UTC
Pronóstico válido del 16 a las 03 UTC al 16 a las 12 UTC
Viento 5 kt con dirección variable
Visibilidad 10 km o más
Nubes dispersas a una altura de 4500 ft
Probabilidad 30% :
Temporalmente
del 16 a las 03 UTC al 16 a las 06 UTC
lluvia
Evolucionando progresivamente
del 16 a las 10 UTC al 16 a las 12 UTC
Viento 10 kt del este

TAF: LEAB 160200Z 1603/1612 VRB05KT 9999 SCT045 PROB30 TEMPO 1603/1606 RA BECMG 1610/1612 09010KT

Observaciones y pronósticos meteorológicos de más de 4000 aeropuertos (mensajes METAR y TAF).

Los puntos amarillos y rojos representan las estaciones disponibles.

Ponga el ratón en el punto deseado para ver el nombre de la estación.

Haga clic para ver las observaciones y los pronósticos meteorológicos.

Para cambiar el mapa : haga clic en los botones verdes con una cruz de color negro para hacer un zoom, en el botón verde con un guión para alejar o en las flechas verdes para mapas adyacentes.


METAR-TAF: